sensor_id;sensor_type;location;lat;lon;timestamp;temperature;humidity
13928;DHT22;7036;50.834;4.718;2023-07-13T00:02:07;26.40;48.70
13928;DHT22;7036;50.834;4.718;2023-07-13T00:04:33;26.40;48.80
13928;DHT22;7036;50.834;4.718;2023-07-13T00:07:00;26.40;48.80
13928;DHT22;7036;50.834;4.718;2023-07-13T00:09:27;26.40;48.80
13928;DHT22;7036;50.834;4.718;2023-07-13T00:11:55;26.40;48.80
13928;DHT22;7036;50.834;4.718;2023-07-13T00:14:21;26.40;48.80
13928;DHT22;7036;50.834;4.718;2023-07-13T00:16:48;26.30;48.80
13928;DHT22;7036;50.834;4.718;2023-07-13T00:19:15;26.30;48.80
13928;DHT22;7036;50.834;4.718;2023-07-13T00:21:43;26.30;48.80
13928;DHT22;7036;50.834;4.718;2023-07-13T00:24:13;26.30;48.80
13928;DHT22;7036;50.834;4.718;2023-07-13T00:26:39;26.30;48.80
13928;DHT22;7036;50.834;4.718;2023-07-13T00:29:06;26.30;48.90
13928;DHT22;7036;50.834;4.718;2023-07-13T00:31:33;26.30;48.90
13928;DHT22;7036;50.834;4.718;2023-07-13T00:34:00;26.40;48.90
13928;DHT22;7036;50.834;4.718;2023-07-13T00:36:27;26.30;48.90
13928;DHT22;7036;50.834;4.718;2023-07-13T00:38:54;26.30;48.90
13928;DHT22;7036;50.834;4.718;2023-07-13T00:41:21;26.30;49.00
13928;DHT22;7036;50.834;4.718;2023-07-13T00:43:48;26.30;49.00
13928;DHT22;7036;50.834;4.718;2023-07-13T00:46:16;26.30;49.00
13928;DHT22;7036;50.834;4.718;2023-07-13T00:48:41;26.30;48.90
13928;DHT22;7036;50.834;4.718;2023-07-13T00:51:08;26.30;49.00
13928;DHT22;7036;50.834;4.718;2023-07-13T00:53:35;26.30;49.10
13928;DHT22;7036;50.834;4.718;2023-07-13T00:56:02;26.30;49.10
13928;DHT22;7036;50.834;4.718;2023-07-13T00:58:29;26.30;49.20
13928;DHT22;7036;50.834;4.718;2023-07-13T01:00:56;26.30;49.20
13928;DHT22;7036;50.834;4.718;2023-07-13T01:03:23;26.30;49.20
13928;DHT22;7036;50.834;4.718;2023-07-13T01:05:50;26.30;49.20
13928;DHT22;7036;50.834;4.718;2023-07-13T01:08:17;26.30;49.20
13928;DHT22;7036;50.834;4.718;2023-07-13T01:10:53;26.30;49.20
13928;DHT22;7036;50.834;4.718;2023-07-13T01:13:19;26.20;49.10
13928;DHT22;7036;50.834;4.718;2023-07-13T01:15:47;26.20;49.10
13928;DHT22;7036;50.834;4.718;2023-07-13T01:18:17;26.20;49.20
13928;DHT22;7036;50.834;4.718;2023-07-13T01:20:40;26.20;49.20
13928;DHT22;7036;50.834;4.718;2023-07-13T01:23:08;26.20;49.20
13928;DHT22;7036;50.834;4.718;2023-07-13T01:25:36;26.20;49.20
13928;DHT22;7036;50.834;4.718;2023-07-13T01:28:03;26.20;49.30
13928;DHT22;7036;50.834;4.718;2023-07-13T01:30:29;26.20;49.30
13928;DHT22;7036;50.834;4.718;2023-07-13T01:32:56;26.20;49.30
13928;DHT22;7036;50.834;4.718;2023-07-13T01:35:23;26.20;49.30
13928;DHT22;7036;50.834;4.718;2023-07-13T01:37:50;26.20;49.30
13928;DHT22;7036;50.834;4.718;2023-07-13T01:40:17;26.20;49.30
13928;DHT22;7036;50.834;4.718;2023-07-13T01:42:44;26.20;49.30
13928;DHT22;7036;50.834;4.718;2023-07-13T01:45:11;26.20;49.30
13928;DHT22;7036;50.834;4.718;2023-07-13T01:47:38;26.20;49.40
13928;DHT22;7036;50.834;4.718;2023-07-13T01:50:05;26.20;49.40
13928;DHT22;7036;50.834;4.718;2023-07-13T01:52:31;26.20;49.40
13928;DHT22;7036;50.834;4.718;2023-07-13T01:54:58;26.20;49.30
13928;DHT22;7036;50.834;4.718;2023-07-13T01:57:25;26.10;49.40
13928;DHT22;7036;50.834;4.718;2023-07-13T01:59:52;26.10;49.40
13928;DHT22;7036;50.834;4.718;2023-07-13T02:02:19;26.10;49.40
13928;DHT22;7036;50.834;4.718;2023-07-13T02:04:47;26.10;49.80
13928;DHT22;7036;50.834;4.718;2023-07-13T02:07:13;26.10;49.40
13928;DHT22;7036;50.834;4.718;2023-07-13T02:09:40;26.20;49.50
13928;DHT22;7036;50.834;4.718;2023-07-13T02:12:08;26.10;49.50
13928;DHT22;7036;50.834;4.718;2023-07-13T02:14:36;26.10;49.60
13928;DHT22;7036;50.834;4.718;2023-07-13T02:17:02;26.10;49.50
13928;DHT22;7036;50.834;4.718;2023-07-13T02:19:29;26.10;49.60
13928;DHT22;7036;50.834;4.718;2023-07-13T02:21:56;26.10;49.60
13928;DHT22;7036;50.834;4.718;2023-07-13T02:24:23;26.10;49.60
13928;DHT22;7036;50.834;4.718;2023-07-13T02:26:50;26.10;49.60
13928;DHT22;7036;50.834;4.718;2023-07-13T02:29:17;26.10;49.60
13928;DHT22;7036;50.834;4.718;2023-07-13T02:31:44;26.10;49.60
13928;DHT22;7036;50.834;4.718;2023-07-13T02:34:11;26.10;49.70
13928;DHT22;7036;50.834;4.718;2023-07-13T02:36:37;26.10;49.70
13928;DHT22;7036;50.834;4.718;2023-07-13T02:39:06;26.10;49.60
13928;DHT22;7036;50.834;4.718;2023-07-13T02:41:31;26.10;49.70
13928;DHT22;7036;50.834;4.718;2023-07-13T02:43:58;26.10;49.70
13928;DHT22;7036;50.834;4.718;2023-07-13T02:46:26;26.10;49.70
13928;DHT22;7036;50.834;4.718;2023-07-13T02:48:53;26.10;49.70
13928;DHT22;7036;50.834;4.718;2023-07-13T02:51:20;26.10;49.70
13928;DHT22;7036;50.834;4.718;2023-07-13T02:53:47;26.10;49.80
13928;DHT22;7036;50.834;4.718;2023-07-13T02:56:14;26.10;49.80
13928;DHT22;7036;50.834;4.718;2023-07-13T02:58:41;26.10;49.80
13928;DHT22;7036;50.834;4.718;2023-07-13T03:01:08;26.00;49.80
13928;DHT22;7036;50.834;4.718;2023-07-13T03:03:35;26.00;49.70
13928;DHT22;7036;50.834;4.718;2023-07-13T03:06:02;26.00;49.70
13928;DHT22;7036;50.834;4.718;2023-07-13T03:08:29;26.10;49.80
13928;DHT22;7036;50.834;4.718;2023-07-13T03:11:02;26.00;49.80
13928;DHT22;7036;50.834;4.718;2023-07-13T03:13:28;26.00;49.80
13928;DHT22;7036;50.834;4.718;2023-07-13T03:15:55;26.00;49.80
13928;DHT22;7036;50.834;4.718;2023-07-13T03:18:22;26.00;49.90
13928;DHT22;7036;50.834;4.718;2023-07-13T03:20:52;26.00;49.90
13928;DHT22;7036;50.834;4.718;2023-07-13T03:23:21;26.00;49.90
13928;DHT22;7036;50.834;4.718;2023-07-13T03:25:47;26.00;49.90
13928;DHT22;7036;50.834;4.718;2023-07-13T03:28:14;26.00;49.90
13928;DHT22;7036;50.834;4.718;2023-07-13T03:30:41;26.00;49.90
13928;DHT22;7036;50.834;4.718;2023-07-13T03:33:08;26.00;50.00
13928;DHT22;7036;50.834;4.718;2023-07-13T03:35:35;26.00;50.00
13928;DHT22;7036;50.834;4.718;2023-07-13T03:38:02;26.00;50.00
13928;DHT22;7036;50.834;4.718;2023-07-13T03:40:29;26.00;50.00
13928;DHT22;7036;50.834;4.718;2023-07-13T03:42:56;26.00;50.00
13928;DHT22;7036;50.834;4.718;2023-07-13T03:45:23;26.00;50.00
13928;DHT22;7036;50.834;4.718;2023-07-13T03:47:50;26.00;50.00
13928;DHT22;7036;50.834;4.718;2023-07-13T03:50:17;26.00;50.00
13928;DHT22;7036;50.834;4.718;2023-07-13T03:52:44;26.00;50.10
13928;DHT22;7036;50.834;4.718;2023-07-13T03:55:10;25.90;50.00
13928;DHT22;7036;50.834;4.718;2023-07-13T03:57:37;25.90;50.00
13928;DHT22;7036;50.834;4.718;2023-07-13T04:00:05;25.90;50.10
13928;DHT22;7036;50.834;4.718;2023-07-13T04:02:32;25.90;50.20
13928;DHT22;7036;50.834;4.718;2023-07-13T04:04:59;25.90;50.10
13928;DHT22;7036;50.834;4.718;2023-07-13T04:07:26;25.90;50.10
13928;DHT22;7036;50.834;4.718;2023-07-13T04:09:53;25.90;50.10
13928;DHT22;7036;50.834;4.718;2023-07-13T04:12:19;25.90;50.20
13928;DHT22;7036;50.834;4.718;2023-07-13T04:14:46;25.90;50.20
13928;DHT22;7036;50.834;4.718;2023-07-13T04:17:13;25.90;50.20
13928;DHT22;7036;50.834;4.718;2023-07-13T04:19:40;25.90;50.20
13928;DHT22;7036;50.834;4.718;2023-07-13T04:22:07;25.90;50.20
13928;DHT22;7036;50.834;4.718;2023-07-13T04:24:34;25.90;50.20
13928;DHT22;7036;50.834;4.718;2023-07-13T04:27:01;25.90;50.20
13928;DHT22;7036;50.834;4.718;2023-07-13T04:29:28;25.90;50.20
13928;DHT22;7036;50.834;4.718;2023-07-13T04:31:55;25.90;50.20
13928;DHT22;7036;50.834;4.718;2023-07-13T04:34:22;25.80;50.20
13928;DHT22;7036;50.834;4.718;2023-07-13T04:36:49;25.80;50.20
13928;DHT22;7036;50.834;4.718;2023-07-13T04:39:16;25.90;50.30
13928;DHT22;7036;50.834;4.718;2023-07-13T04:41:43;25.80;50.30
13928;DHT22;7036;50.834;4.718;2023-07-13T04:44:10;25.80;50.30
13928;DHT22;7036;50.834;4.718;2023-07-13T04:46:37;25.80;50.30
13928;DHT22;7036;50.834;4.718;2023-07-13T04:49:04;25.80;50.30
13928;DHT22;7036;50.834;4.718;2023-07-13T04:51:31;25.90;50.40
13928;DHT22;7036;50.834;4.718;2023-07-13T04:53:58;25.80;50.30
13928;DHT22;7036;50.834;4.718;2023-07-13T04:56:25;25.90;50.40
13928;DHT22;7036;50.834;4.718;2023-07-13T04:58:52;25.80;50.40
13928;DHT22;7036;50.834;4.718;2023-07-13T05:01:18;25.80;50.40
13928;DHT22;7036;50.834;4.718;2023-07-13T05:03:45;25.80;50.40
13928;DHT22;7036;50.834;4.718;2023-07-13T05:06:12;25.80;50.50
13928;DHT22;7036;50.834;4.718;2023-07-13T05:08:39;25.80;50.40
13928;DHT22;7036;50.834;4.718;2023-07-13T05:11:07;25.80;50.40
13928;DHT22;7036;50.834;4.718;2023-07-13T05:13:34;25.80;50.40
13928;DHT22;7036;50.834;4.718;2023-07-13T05:16:02;25.90;50.50
13928;DHT22;7036;50.834;4.718;2023-07-13T05:18:28;25.80;50.40
13928;DHT22;7036;50.834;4.718;2023-07-13T05:21:07;25.80;50.50
13928;DHT22;7036;50.834;4.718;2023-07-13T05:23:35;25.80;50.60
13928;DHT22;7036;50.834;4.718;2023-07-13T05:26:01;25.80;50.50
13928;DHT22;7036;50.834;4.718;2023-07-13T05:28:29;25.80;50.50
13928;DHT22;7036;50.834;4.718;2023-07-13T05:30:55;25.80;50.60
13928;DHT22;7036;50.834;4.718;2023-07-13T05:33:22;25.80;50.60
13928;DHT22;7036;50.834;4.718;2023-07-13T05:35:49;25.80;50.60
13928;DHT22;7036;50.834;4.718;2023-07-13T05:38:15;25.80;50.60
13928;DHT22;7036;50.834;4.718;2023-07-13T05:40:43;25.80;50.60
13928;DHT22;7036;50.834;4.718;2023-07-13T05:43:09;25.80;50.60
13928;DHT22;7036;50.834;4.718;2023-07-13T05:45:36;25.80;50.60
13928;DHT22;7036;50.834;4.718;2023-07-13T05:48:03;25.80;50.60
13928;DHT22;7036;50.834;4.718;2023-07-13T05:50:30;25.80;50.60
13928;DHT22;7036;50.834;4.718;2023-07-13T05:52:57;25.80;50.60
13928;DHT22;7036;50.834;4.718;2023-07-13T05:55:24;25.80;50.70
13928;DHT22;7036;50.834;4.718;2023-07-13T05:57:51;25.90;50.70
13928;DHT22;7036;50.834;4.718;2023-07-13T06:00:18;25.80;50.70
13928;DHT22;7036;50.834;4.718;2023-07-13T06:02:45;25.90;50.70
13928;DHT22;7036;50.834;4.718;2023-07-13T06:05:12;25.90;50.80
13928;DHT22;7036;50.834;4.718;2023-07-13T06:07:41;25.90;50.80
13928;DHT22;7036;50.834;4.718;2023-07-13T06:10:07;25.90;50.80
13928;DHT22;7036;50.834;4.718;2023-07-13T06:12:34;25.90;50.70
13928;DHT22;7036;50.834;4.718;2023-07-13T06:15:01;25.90;50.80
13928;DHT22;7036;50.834;4.718;2023-07-13T06:17:28;25.80;50.70
13928;DHT22;7036;50.834;4.718;2023-07-13T06:19:55;25.90;50.80
13928;DHT22;7036;50.834;4.718;2023-07-13T06:22:21;25.90;50.80
13928;DHT22;7036;50.834;4.718;2023-07-13T06:24:48;25.90;50.80
13928;DHT22;7036;50.834;4.718;2023-07-13T06:27:15;25.90;50.80
13928;DHT22;7036;50.834;4.718;2023-07-13T06:29:42;25.90;50.80
13928;DHT22;7036;50.834;4.718;2023-07-13T06:32:09;25.80;50.70
13928;DHT22;7036;50.834;4.718;2023-07-13T06:34:36;25.90;50.80
13928;DHT22;7036;50.834;4.718;2023-07-13T06:37:03;25.90;50.80
13928;DHT22;7036;50.834;4.718;2023-07-13T06:39:39;25.90;50.80
13928;DHT22;7036;50.834;4.718;2023-07-13T06:42:06;25.90;50.90
13928;DHT22;7036;50.834;4.718;2023-07-13T06:44:33;25.90;50.90
13928;DHT22;7036;50.834;4.718;2023-07-13T06:47:00;25.90;50.90
13928;DHT22;7036;50.834;4.718;2023-07-13T06:49:27;25.90;50.90
13928;DHT22;7036;50.834;4.718;2023-07-13T06:51:54;25.90;50.90
13928;DHT22;7036;50.834;4.718;2023-07-13T06:54:21;25.90;51.00
13928;DHT22;7036;50.834;4.718;2023-07-13T06:56:49;25.90;51.10
13928;DHT22;7036;50.834;4.718;2023-07-13T06:59:15;25.90;51.00
13928;DHT22;7036;50.834;4.718;2023-07-13T07:01:42;25.90;51.00
13928;DHT22;7036;50.834;4.718;2023-07-13T07:04:09;25.80;51.00
13928;DHT22;7036;50.834;4.718;2023-07-13T07:06:36;25.80;51.00
13928;DHT22;7036;50.834;4.718;2023-07-13T07:09:03;25.90;51.00
13928;DHT22;7036;50.834;4.718;2023-07-13T07:11:31;25.90;51.00
13928;DHT22;7036;50.834;4.718;2023-07-13T07:13:58;25.90;51.00
13928;DHT22;7036;50.834;4.718;2023-07-13T07:16:25;25.90;51.10
13928;DHT22;7036;50.834;4.718;2023-07-13T07:18:52;25.90;51.00
13928;DHT22;7036;50.834;4.718;2023-07-13T07:21:19;25.90;51.10
13928;DHT22;7036;50.834;4.718;2023-07-13T07:23:46;25.90;51.10
13928;DHT22;7036;50.834;4.718;2023-07-13T07:26:14;25.90;51.10
13928;DHT22;7036;50.834;4.718;2023-07-13T07:28:41;25.90;51.10
13928;DHT22;7036;50.834;4.718;2023-07-13T07:31:08;25.90;51.10
13928;DHT22;7036;50.834;4.718;2023-07-13T07:33:36;25.90;51.10
13928;DHT22;7036;50.834;4.718;2023-07-13T07:36:04;25.90;51.50
13928;DHT22;7036;50.834;4.718;2023-07-13T07:38:30;25.70;52.10
13928;DHT22;7036;50.834;4.718;2023-07-13T07:40:57;25.60;52.20
13928;DHT22;7036;50.834;4.718;2023-07-13T07:43:24;25.60;52.20
13928;DHT22;7036;50.834;4.718;2023-07-13T07:45:52;25.60;52.30
13928;DHT22;7036;50.834;4.718;2023-07-13T07:48:20;25.60;52.10
13928;DHT22;7036;50.834;4.718;2023-07-13T07:50:47;25.70;52.10
13928;DHT22;7036;50.834;4.718;2023-07-13T07:53:14;25.70;52.10
13928;DHT22;7036;50.834;4.718;2023-07-13T07:55:41;25.70;52.10
13928;DHT22;7036;50.834;4.718;2023-07-13T07:58:09;25.70;52.10
13928;DHT22;7036;50.834;4.718;2023-07-13T08:00:36;25.80;52.20
13928;DHT22;7036;50.834;4.718;2023-07-13T08:03:03;25.80;52.20
13928;DHT22;7036;50.834;4.718;2023-07-13T08:05:30;25.80;52.20
13928;DHT22;7036;50.834;4.718;2023-07-13T08:07:57;25.80;52.20
13928;DHT22;7036;50.834;4.718;2023-07-13T08:10:25;25.90;52.90
13928;DHT22;7036;50.834;4.718;2023-07-13T08:12:52;25.80;52.20
13928;DHT22;7036;50.834;4.718;2023-07-13T08:15:19;25.80;52.20
13928;DHT22;7036;50.834;4.718;2023-07-13T08:17:49;25.80;52.30
13928;DHT22;7036;50.834;4.718;2023-07-13T08:20:13;25.80;52.20
13928;DHT22;7036;50.834;4.718;2023-07-13T08:22:40;25.80;52.30
13928;DHT22;7036;50.834;4.718;2023-07-13T08:25:08;25.80;52.40
13928;DHT22;7036;50.834;4.718;2023-07-13T08:27:34;25.80;52.20
13928;DHT22;7036;50.834;4.718;2023-07-13T08:30:01;25.80;52.40
13928;DHT22;7036;50.834;4.718;2023-07-13T08:32:28;25.70;52.40
13928;DHT22;7036;50.834;4.718;2023-07-13T08:34:55;25.70;52.50
13928;DHT22;7036;50.834;4.718;2023-07-13T08:37:22;25.70;52.50
13928;DHT22;7036;50.834;4.718;2023-07-13T08:39:49;25.70;52.40
13928;DHT22;7036;50.834;4.718;2023-07-13T08:42:29;25.70;52.60
13928;DHT22;7036;50.834;4.718;2023-07-13T08:47:32;25.70;53.10
13928;DHT22;7036;50.834;4.718;2023-07-13T08:49:59;25.80;52.50
13928;DHT22;7036;50.834;4.718;2023-07-13T08:52:34;25.80;52.40
13928;DHT22;7036;50.834;4.718;2023-07-13T08:55:02;25.80;52.50
13928;DHT22;7036;50.834;4.718;2023-07-13T08:57:28;25.80;52.40
13928;DHT22;7036;50.834;4.718;2023-07-13T08:59:54;25.80;52.40
13928;DHT22;7036;50.834;4.718;2023-07-13T09:05:27;25.80;52.50
13928;DHT22;7036;50.834;4.718;2023-07-13T09:10:20;25.90;52.40
13928;DHT22;7036;50.834;4.718;2023-07-13T09:15:43;25.80;52.20
13928;DHT22;7036;50.834;4.718;2023-07-13T09:21:31;25.80;52.30
13928;DHT22;7036;50.834;4.718;2023-07-13T09:23:19;25.80;52.20
13928;DHT22;7036;50.834;4.718;2023-07-13T09:25:48;25.80;52.20
13928;DHT22;7036;50.834;4.718;2023-07-13T09:28:18;25.80;52.00
13928;DHT22;7036;50.834;4.718;2023-07-13T09:33:09;25.90;52.10
13928;DHT22;7036;50.834;4.718;2023-07-13T09:35:36;25.80;52.10
13928;DHT22;7036;50.834;4.718;2023-07-13T09:38:13;25.90;52.20
13928;DHT22;7036;50.834;4.718;2023-07-13T09:41:04;25.90;52.10
13928;DHT22;7036;50.834;4.718;2023-07-13T09:43:28;25.90;52.10
13928;DHT22;7036;50.834;4.718;2023-07-13T09:45:55;25.90;52.10
13928;DHT22;7036;50.834;4.718;2023-07-13T09:48:21;25.80;52.00
13928;DHT22;7036;50.834;4.718;2023-07-13T09:50:48;25.80;52.00
13928;DHT22;7036;50.834;4.718;2023-07-13T09:53:16;25.80;52.20
13928;DHT22;7036;50.834;4.718;2023-07-13T09:55:43;25.80;52.10
13928;DHT22;7036;50.834;4.718;2023-07-13T09:58:13;25.80;52.20
13928;DHT22;7036;50.834;4.718;2023-07-13T10:00:39;25.80;52.90
13928;DHT22;7036;50.834;4.718;2023-07-13T10:03:21;25.80;52.50
13928;DHT22;7036;50.834;4.718;2023-07-13T10:05:45;25.80;52.20
13928;DHT22;7036;50.834;4.718;2023-07-13T10:08:18;25.80;52.10
13928;DHT22;7036;50.834;4.718;2023-07-13T10:10:44;25.80;52.00
13928;DHT22;7036;50.834;4.718;2023-07-13T10:13:28;25.80;52.50
13928;DHT22;7036;50.834;4.718;2023-07-13T10:15:54;25.80;52.40
13928;DHT22;7036;50.834;4.718;2023-07-13T10:18:21;25.80;52.40
13928;DHT22;7036;50.834;4.718;2023-07-13T10:20:48;25.80;52.40
13928;DHT22;7036;50.834;4.718;2023-07-13T10:23:15;25.90;52.40
13928;DHT22;7036;50.834;4.718;2023-07-13T10:25:43;25.90;52.40
13928;DHT22;7036;50.834;4.718;2023-07-13T10:28:35;25.90;52.30
13928;DHT22;7036;50.834;4.718;2023-07-13T10:31:01;25.90;52.20
13928;DHT22;7036;50.834;4.718;2023-07-13T10:33:27;26.00;52.20
13928;DHT22;7036;50.834;4.718;2023-07-13T10:35:56;25.90;52.10
13928;DHT22;7036;50.834;4.718;2023-07-13T10:38:22;26.00;52.30
13928;DHT22;7036;50.834;4.718;2023-07-13T10:40:55;26.00;52.20
13928;DHT22;7036;50.834;4.718;2023-07-13T10:43:25;26.00;52.10
13928;DHT22;7036;50.834;4.718;2023-07-13T10:45:51;26.00;52.10
13928;DHT22;7036;50.834;4.718;2023-07-13T10:48:17;26.00;52.00
13928;DHT22;7036;50.834;4.718;2023-07-13T10:50:45;26.00;52.00
13928;DHT22;7036;50.834;4.718;2023-07-13T10:53:19;26.00;52.00
13928;DHT22;7036;50.834;4.718;2023-07-13T10:58:29;26.00;51.90
13928;DHT22;7036;50.834;4.718;2023-07-13T11:01:06;26.00;52.00
13928;DHT22;7036;50.834;4.718;2023-07-13T11:03:31;26.00;52.10
13928;DHT22;7036;50.834;4.718;2023-07-13T11:06:17;26.00;52.00
13928;DHT22;7036;50.834;4.718;2023-07-13T11:13:58;26.10;51.90
13928;DHT22;7036;50.834;4.718;2023-07-13T11:21:30;26.10;51.60
13928;DHT22;7036;50.834;4.718;2023-07-13T11:24:17;26.20;51.60
13928;DHT22;7036;50.834;4.718;2023-07-13T11:31:56;26.20;52.00
13928;DHT22;7036;50.834;4.718;2023-07-13T11:34:30;26.20;52.10
13928;DHT22;7036;50.834;4.718;2023-07-13T11:36:55;26.20;52.00
13928;DHT22;7036;50.834;4.718;2023-07-13T11:39:32;26.20;51.80
13928;DHT22;7036;50.834;4.718;2023-07-13T11:42:02;26.20;51.30
13928;DHT22;7036;50.834;4.718;2023-07-13T11:44:29;26.20;51.40
13928;DHT22;7036;50.834;4.718;2023-07-13T11:46:56;26.20;51.10
13928;DHT22;7036;50.834;4.718;2023-07-13T11:49:25;26.20;51.00
13928;DHT22;7036;50.834;4.718;2023-07-13T11:51:51;26.20;51.20
13928;DHT22;7036;50.834;4.718;2023-07-13T11:54:28;26.20;51.30
13928;DHT22;7036;50.834;4.718;2023-07-13T11:57:06;26.20;51.40
13928;DHT22;7036;50.834;4.718;2023-07-13T11:59:30;26.30;51.00
13928;DHT22;7036;50.834;4.718;2023-07-13T12:01:57;26.30;51.60
13928;DHT22;7036;50.834;4.718;2023-07-13T12:04:28;26.20;51.50
13928;DHT22;7036;50.834;4.718;2023-07-13T12:06:58;26.30;51.80
13928;DHT22;7036;50.834;4.718;2023-07-13T12:09:26;26.30;51.60
13928;DHT22;7036;50.834;4.718;2023-07-13T12:11:52;26.30;51.50
13928;DHT22;7036;50.834;4.718;2023-07-13T12:14:19;26.30;51.40
13928;DHT22;7036;50.834;4.718;2023-07-13T12:16:46;26.30;51.30
13928;DHT22;7036;50.834;4.718;2023-07-13T12:19:23;26.30;51.10
13928;DHT22;7036;50.834;4.718;2023-07-13T12:21:50;26.30;51.00
13928;DHT22;7036;50.834;4.718;2023-07-13T12:24:17;26.30;50.90
13928;DHT22;7036;50.834;4.718;2023-07-13T12:26:43;26.30;50.60
13928;DHT22;7036;50.834;4.718;2023-07-13T12:29:13;26.20;51.00
13928;DHT22;7036;50.834;4.718;2023-07-13T12:31:40;26.20;50.40
13928;DHT22;7036;50.834;4.718;2023-07-13T12:34:14;26.30;50.40
13928;DHT22;7036;50.834;4.718;2023-07-13T12:36:47;26.20;50.40
13928;DHT22;7036;50.834;4.718;2023-07-13T12:39:16;26.20;50.40
13928;DHT22;7036;50.834;4.718;2023-07-13T12:41:41;26.30;51.10
13928;DHT22;7036;50.834;4.718;2023-07-13T12:44:16;26.20;50.20
13928;DHT22;7036;50.834;4.718;2023-07-13T12:46:50;26.20;50.10
13928;DHT22;7036;50.834;4.718;2023-07-13T12:49:07;26.20;50.00
13928;DHT22;7036;50.834;4.718;2023-07-13T12:51:34;26.20;50.00
13928;DHT22;7036;50.834;4.718;2023-07-13T12:54:15;26.20;49.90
13928;DHT22;7036;50.834;4.718;2023-07-13T12:56:39;26.20;49.90
13928;DHT22;7036;50.834;4.718;2023-07-13T12:59:09;26.20;49.80
13928;DHT22;7036;50.834;4.718;2023-07-13T13:01:34;26.20;49.80
13928;DHT22;7036;50.834;4.718;2023-07-13T13:04:01;26.20;49.80
13928;DHT22;7036;50.834;4.718;2023-07-13T13:06:28;26.20;49.80
13928;DHT22;7036;50.834;4.718;2023-07-13T13:08:55;26.20;49.80
13928;DHT22;7036;50.834;4.718;2023-07-13T13:11:22;26.20;50.00
13928;DHT22;7036;50.834;4.718;2023-07-13T13:13:49;26.10;50.40
13928;DHT22;7036;50.834;4.718;2023-07-13T13:16:34;26.10;50.60
13928;DHT22;7036;50.834;4.718;2023-07-13T13:19:12;26.10;50.70
13928;DHT22;7036;50.834;4.718;2023-07-13T13:21:36;26.00;50.70
13928;DHT22;7036;50.834;4.718;2023-07-13T13:24:08;26.00;50.70
13928;DHT22;7036;50.834;4.718;2023-07-13T13:26:30;26.00;50.70
13928;DHT22;7036;50.834;4.718;2023-07-13T13:28:57;26.10;50.80
13928;DHT22;7036;50.834;4.718;2023-07-13T13:31:24;26.10;50.80
13928;DHT22;7036;50.834;4.718;2023-07-13T13:33:51;26.10;50.80
13928;DHT22;7036;50.834;4.718;2023-07-13T13:36:19;26.10;50.90
13928;DHT22;7036;50.834;4.718;2023-07-13T13:38:46;26.10;51.00
13928;DHT22;7036;50.834;4.718;2023-07-13T13:41:13;26.10;51.00
13928;DHT22;7036;50.834;4.718;2023-07-13T13:43:40;26.10;52.00
13928;DHT22;7036;50.834;4.718;2023-07-13T13:46:17;26.00;52.00
13928;DHT22;7036;50.834;4.718;2023-07-13T13:48:40;26.00;52.20
13928;DHT22;7036;50.834;4.718;2023-07-13T13:51:13;26.00;52.10
13928;DHT22;7036;50.834;4.718;2023-07-13T13:53:36;26.10;52.10
13928;DHT22;7036;50.834;4.718;2023-07-13T13:56:04;26.00;52.20
13928;DHT22;7036;50.834;4.718;2023-07-13T13:58:30;26.00;52.20
13928;DHT22;7036;50.834;4.718;2023-07-13T14:00:57;26.00;52.10
13928;DHT22;7036;50.834;4.718;2023-07-13T14:03:26;26.00;52.10
13928;DHT22;7036;50.834;4.718;2023-07-13T14:05:53;26.00;52.20
13928;DHT22;7036;50.834;4.718;2023-07-13T14:08:22;26.00;52.20
13928;DHT22;7036;50.834;4.718;2023-07-13T14:10:51;26.00;52.20
13928;DHT22;7036;50.834;4.718;2023-07-13T14:13:18;26.00;52.10
13928;DHT22;7036;50.834;4.718;2023-07-13T14:15:44;26.10;52.10
13928;DHT22;7036;50.834;4.718;2023-07-13T14:18:11;26.10;52.00
13928;DHT22;7036;50.834;4.718;2023-07-13T14:20:38;26.10;51.90
13928;DHT22;7036;50.834;4.718;2023-07-13T14:23:05;26.10;52.00
13928;DHT22;7036;50.834;4.718;2023-07-13T14:25:32;26.10;51.80
13928;DHT22;7036;50.834;4.718;2023-07-13T14:27:59;26.10;51.80
13928;DHT22;7036;50.834;4.718;2023-07-13T14:30:26;26.10;51.80
13928;DHT22;7036;50.834;4.718;2023-07-13T14:32:53;26.10;51.80
13928;DHT22;7036;50.834;4.718;2023-07-13T14:35:20;26.10;51.70
13928;DHT22;7036;50.834;4.718;2023-07-13T14:37:46;26.10;51.60
13928;DHT22;7036;50.834;4.718;2023-07-13T14:40:14;26.10;51.60
13928;DHT22;7036;50.834;4.718;2023-07-13T14:42:40;26.10;51.60
13928;DHT22;7036;50.834;4.718;2023-07-13T14:45:14;26.10;51.60
13928;DHT22;7036;50.834;4.718;2023-07-13T14:47:40;26.10;51.60
13928;DHT22;7036;50.834;4.718;2023-07-13T14:50:17;26.20;51.60
13928;DHT22;7036;50.834;4.718;2023-07-13T14:52:44;26.20;51.60
13928;DHT22;7036;50.834;4.718;2023-07-13T14:55:11;26.10;51.60
13928;DHT22;7036;50.834;4.718;2023-07-13T14:57:37;26.10;51.60
13928;DHT22;7036;50.834;4.718;2023-07-13T15:00:05;26.10;51.60
13928;DHT22;7036;50.834;4.718;2023-07-13T15:02:35;26.10;51.80
13928;DHT22;7036;50.834;4.718;2023-07-13T15:05:01;26.10;51.70
13928;DHT22;7036;50.834;4.718;2023-07-13T15:07:28;26.10;51.70
13928;DHT22;7036;50.834;4.718;2023-07-13T15:09:55;26.10;51.60
13928;DHT22;7036;50.834;4.718;2023-07-13T15:12:22;26.10;51.60
13928;DHT22;7036;50.834;4.718;2023-07-13T15:14:49;26.10;51.50
13928;DHT22;7036;50.834;4.718;2023-07-13T15:17:33;26.10;51.50
13928;DHT22;7036;50.834;4.718;2023-07-13T15:19:57;26.10;51.30
13928;DHT22;7036;50.834;4.718;2023-07-13T15:22:24;26.10;51.20
13928;DHT22;7036;50.834;4.718;2023-07-13T15:24:51;26.10;51.10
13928;DHT22;7036;50.834;4.718;2023-07-13T15:27:18;26.10;51.10
13928;DHT22;7036;50.834;4.718;2023-07-13T15:29:45;26.10;51.20
13928;DHT22;7036;50.834;4.718;2023-07-13T15:32:15;26.10;51.00
13928;DHT22;7036;50.834;4.718;2023-07-13T15:34:39;26.10;51.00
13928;DHT22;7036;50.834;4.718;2023-07-13T15:37:15;26.10;51.00
13928;DHT22;7036;50.834;4.718;2023-07-13T15:39:42;26.10;51.10
13928;DHT22;7036;50.834;4.718;2023-07-13T15:42:16;26.10;51.00
13928;DHT22;7036;50.834;4.718;2023-07-13T15:44:39;26.00;50.80
13928;DHT22;7036;50.834;4.718;2023-07-13T15:47:08;26.00;50.80
13928;DHT22;7036;50.834;4.718;2023-07-13T15:49:33;26.00;50.90
13928;DHT22;7036;50.834;4.718;2023-07-13T15:52:00;26.00;50.70
13928;DHT22;7036;50.834;4.718;2023-07-13T15:54:27;26.10;51.40
13928;DHT22;7036;50.834;4.718;2023-07-13T15:56:54;26.00;50.90
13928;DHT22;7036;50.834;4.718;2023-07-13T15:59:21;26.10;50.90
13928;DHT22;7036;50.834;4.718;2023-07-13T16:01:47;26.00;50.80
13928;DHT22;7036;50.834;4.718;2023-07-13T16:04:15;26.10;50.80
13928;DHT22;7036;50.834;4.718;2023-07-13T16:06:41;26.10;50.80
13928;DHT22;7036;50.834;4.718;2023-07-13T16:09:10;26.10;50.80
13928;DHT22;7036;50.834;4.718;2023-07-13T16:11:36;26.20;50.70
13928;DHT22;7036;50.834;4.718;2023-07-13T16:14:03;26.20;50.60
13928;DHT22;7036;50.834;4.718;2023-07-13T16:16:31;26.20;51.20
13928;DHT22;7036;50.834;4.718;2023-07-13T16:19:02;26.20;50.60
13928;DHT22;7036;50.834;4.718;2023-07-13T16:21:28;26.20;50.50
13928;DHT22;7036;50.834;4.718;2023-07-13T16:23:54;26.20;50.50